createdAt,value
2018-12-25T00:02:37.525Z,6.30
2018-12-25T00:05:27.660Z,6.57
2018-12-25T00:08:17.778Z,7.47
2018-12-25T00:11:07.731Z,6.93
2018-12-25T00:13:57.496Z,7.20
2018-12-25T00:16:47.284Z,6.23
2018-12-25T00:19:29.568Z,6.53
2018-12-25T00:22:19.353Z,6.73
2018-12-25T00:25:09.256Z,7.57
2018-12-25T00:27:59.274Z,6.77
2018-12-25T00:30:48.884Z,7.30
2018-12-25T00:33:38.834Z,6.73
2018-12-25T00:36:28.750Z,6.40
2018-12-25T00:39:18.506Z,6.43
2018-12-25T00:42:27.309Z,6.63
2018-12-25T00:45:18.373Z,7.20
2018-12-25T00:48:08.663Z,7.20
2018-12-25T00:50:58.661Z,7.07
2018-12-25T00:54:07.551Z,7.03
2018-12-25T00:56:57.488Z,7.43
2018-12-25T00:59:47.522Z,7.63
2018-12-25T01:02:37.367Z,7.87
2018-12-25T01:08:36.464Z,8.40
2018-12-25T01:11:26.793Z,8.13
2018-12-25T01:14:16.694Z,8.07
2018-12-25T01:17:06.493Z,7.23
2018-12-25T01:19:56.259Z,7.60
2018-12-25T01:22:46.388Z,8.53
2018-12-25T01:25:36.269Z,7.83
2018-12-25T01:28:26.460Z,8.70
2018-12-25T01:31:16.582Z,9.10
2018-12-25T01:34:06.332Z,10.07
2018-12-25T01:36:56.168Z,10.40
2018-12-25T01:39:46.141Z,9.20
2018-12-25T01:45:31.526Z,8.87
2018-12-25T01:48:21.691Z,8.97
2018-12-25T01:51:11.863Z,9.23
2018-12-25T01:54:01.690Z,8.87
2018-12-25T01:56:51.837Z,9.57
2018-12-25T01:59:41.657Z,9.93
2018-12-25T02:02:31.809Z,8.53
2018-12-25T02:05:22.064Z,8.13
2018-12-25T02:08:31.084Z,8.63
2018-12-25T02:11:02.140Z,8.10
2018-12-25T02:13:33.087Z,8.20
2018-12-25T02:16:03.922Z,7.87
2018-12-25T02:18:47.521Z,8.63
2018-12-25T02:21:37.290Z,7.50
2018-12-25T02:24:27.126Z,7.60
2018-12-25T02:27:17.256Z,7.97
2018-12-25T02:30:26.402Z,8.67
2018-12-25T02:33:16.175Z,8.33
2018-12-25T02:36:06.037Z,8.67
2018-12-25T02:38:56.225Z,8.50
2018-12-25T02:41:46.108Z,8.43
2018-12-25T02:44:35.917Z,8.10
2018-12-25T02:47:26.870Z,7.40
2018-12-25T02:50:16.793Z,6.63
2018-12-25T02:53:06.621Z,7.00
2018-12-25T02:55:56.472Z,7.60
2018-12-25T02:59:05.559Z,6.77
2018-12-25T03:05:04.064Z,9.03
2018-12-25T03:07:53.800Z,8.27
2018-12-25T03:10:43.638Z,9.10
2018-12-25T03:13:33.403Z,9.27
2018-12-25T03:16:23.146Z,9.30
2018-12-25T03:19:05.152Z,9.47
2018-12-25T03:21:54.887Z,10.30
2018-12-25T03:24:44.640Z,9.83
2018-12-25T03:27:34.651Z,9.23
2018-12-25T03:30:24.396Z,9.60
2018-12-25T03:33:14.542Z,9.43
2018-12-25T03:36:04.428Z,9.23
2018-12-25T03:38:54.173Z,7.97
2018-12-25T03:41:43.914Z,8.47
2018-12-25T03:44:33.918Z,7.97
2018-12-25T03:47:24.104Z,9.20
2018-12-25T03:50:13.869Z,10.00
2018-12-25T03:53:03.696Z,9.67
2018-12-25T03:55:53.705Z,9.87
2018-12-25T03:58:43.527Z,10.27
2018-12-25T04:04:28.505Z,11.63
2018-12-25T04:07:18.252Z,12.07
2018-12-25T04:10:08.388Z,12.37
2018-12-25T04:12:58.753Z,13.43
2018-12-25T04:15:48.501Z,10.70
2018-12-25T04:18:31.289Z,10.97
2018-12-25T04:21:21.039Z,10.83
2018-12-25T04:24:10.792Z,11.30
2018-12-25T04:27:00.844Z,11.50
2018-12-25T04:29:51.109Z,12.37
2018-12-25T04:32:41.818Z,12.43
2018-12-25T04:35:31.904Z,11.60
2018-12-25T04:38:22.294Z,11.97
2018-12-25T04:41:12.112Z,11.27
2018-12-25T04:44:01.880Z,10.57
2018-12-25T04:46:51.627Z,11.57
2018-12-25T04:49:41.655Z,11.33
2018-12-25T04:52:31.401Z,10.40
2018-12-25T04:55:21.161Z,11.23
2018-12-25T04:58:10.907Z,10.93
2018-12-25T05:01:01.045Z,10.17
2018-12-25T05:03:50.871Z,10.90
2018-12-25T05:06:41.324Z,10.37
2018-12-25T05:09:31.218Z,9.80
2018-12-25T05:15:15.880Z,10.80
2018-12-25T05:17:58.335Z,10.27
2018-12-25T05:23:44.166Z,11.53
2018-12-25T05:26:34.589Z,10.70
2018-12-25T05:29:24.340Z,11.07
2018-12-25T05:32:14.334Z,12.40
2018-12-25T05:35:04.156Z,11.50
2018-12-25T05:37:53.919Z,10.67
2018-12-25T05:43:53.034Z,10.50
2018-12-25T05:46:42.823Z,10.13
2018-12-25T05:49:33.027Z,11.93
2018-12-25T05:52:22.870Z,12.60
2018-12-25T05:55:12.606Z,10.90
2018-12-25T05:58:02.343Z,10.83
2018-12-25T06:00:52.513Z,10.10
2018-12-25T06:03:42.273Z,10.90
2018-12-25T06:06:32.206Z,10.80
2018-12-25T06:09:21.946Z,10.77
2018-12-25T06:12:11.725Z,12.23
2018-12-25T06:15:01.473Z,14.93
2018-12-25T06:17:44.183Z,14.30
2018-12-25T06:20:55.237Z,12.83
2018-12-25T06:23:44.446Z,12.30
2018-12-25T06:26:34.195Z,11.80
2018-12-25T06:32:19.236Z,12.13
2018-12-25T06:35:09.020Z,10.90
2018-12-25T06:37:59.097Z,11.63
2018-12-25T06:40:48.866Z,11.10
2018-12-25T06:43:38.906Z,10.70
2018-12-25T06:46:28.756Z,13.97
2018-12-25T06:49:18.564Z,13.97
2018-12-25T06:55:18.626Z,10.60
2018-12-25T06:58:08.446Z,10.67
2018-12-25T07:00:58.873Z,10.43
2018-12-25T07:03:48.955Z,10.03
2018-12-25T07:06:39.034Z,11.10
2018-12-25T07:09:29.098Z,11.17
2018-12-25T07:12:18.842Z,10.23
2018-12-25T07:15:09.319Z,10.83
2018-12-25T07:17:52.045Z,11.70
2018-12-25T07:20:42.135Z,12.03
2018-12-25T07:23:31.919Z,13.13
2018-12-25T07:26:22.478Z,12.73
2018-12-25T07:29:12.650Z,11.27
2018-12-25T07:32:02.721Z,12.07
2018-12-25T07:34:52.738Z,12.10
2018-12-25T07:37:42.555Z,11.80
2018-12-25T07:40:32.297Z,12.90
2018-12-25T07:43:22.389Z,12.47
2018-12-25T07:49:21.582Z,11.07
2018-12-25T07:52:11.420Z,12.60
2018-12-25T07:55:01.623Z,10.83
2018-12-25T07:57:51.864Z,11.13
2018-12-25T08:00:41.701Z,11.07
2018-12-25T08:03:31.852Z,11.50
2018-12-25T08:06:21.845Z,12.03
2018-12-25T08:09:11.616Z,12.67
2018-12-25T08:12:02.015Z,16.87
2018-12-25T08:14:53.105Z,14.37
2018-12-25T08:17:42.989Z,12.27
2018-12-25T08:20:33.149Z,12.03
2018-12-25T08:23:22.902Z,11.73
2018-12-25T08:26:13.271Z,13.43
2018-12-25T08:29:03.039Z,13.00
2018-12-25T08:31:53.269Z,13.63
2018-12-25T08:34:43.320Z,15.30
2018-12-25T08:37:33.401Z,14.23
2018-12-25T08:40:23.527Z,12.67
2018-12-25T08:43:13.979Z,13.60
2018-12-25T08:46:04.214Z,12.13
2018-12-25T08:48:53.950Z,12.47
2018-12-25T08:51:44.334Z,12.50
2018-12-25T08:57:43.086Z,13.33
2018-12-25T09:00:33.199Z,12.57
2018-12-25T09:03:23.274Z,11.90
2018-12-25T09:06:13.502Z,12.77
2018-12-25T09:12:13.641Z,12.57
2018-12-25T09:15:03.716Z,10.93
2018-12-25T09:17:46.612Z,11.03
2018-12-25T09:20:36.354Z,11.40
2018-12-25T09:23:26.128Z,13.23
2018-12-25T09:26:16.171Z,11.73
2018-12-25T09:29:06.246Z,12.33
2018-12-25T09:31:56.076Z,13.03
2018-12-25T09:34:45.883Z,10.77
2018-12-25T09:37:36.084Z,11.90
2018-12-25T09:40:26.129Z,11.47
2018-12-25T09:43:16.237Z,11.33
2018-12-25T09:46:06.605Z,12.20
2018-12-25T09:48:56.328Z,12.17
2018-12-25T09:51:46.069Z,12.57
2018-12-25T09:54:36.106Z,11.97
2018-12-25T09:57:26.137Z,12.20
2018-12-25T10:00:15.865Z,13.43
2018-12-25T10:03:05.680Z,12.30
2018-12-25T10:05:55.419Z,12.10
2018-12-25T10:08:45.175Z,11.03
2018-12-25T10:11:34.917Z,11.10
2018-12-25T10:14:24.703Z,11.40
2018-12-25T10:17:14.504Z,10.10
2018-12-25T10:19:57.197Z,11.37
2018-12-25T10:22:47.267Z,11.93
2018-12-25T10:25:37.617Z,11.73
2018-12-25T10:28:27.886Z,13.27
2018-12-25T10:31:17.848Z,10.63
2018-12-25T10:34:07.576Z,10.40
2018-12-25T10:36:57.307Z,9.43
2018-12-25T10:39:47.046Z,9.73
2018-12-25T10:42:37.059Z,9.53
2018-12-25T10:45:26.869Z,8.60
2018-12-25T10:48:16.994Z,7.93
2018-12-25T10:51:06.726Z,6.60
2018-12-25T10:53:56.550Z,6.90
2018-12-25T10:56:46.346Z,7.13
2018-12-25T10:59:36.092Z,7.60
2018-12-25T11:02:26.108Z,6.87
2018-12-25T11:05:15.850Z,8.10
2018-12-25T11:08:05.579Z,7.40
2018-12-25T11:10:55.316Z,7.10
2018-12-25T11:13:45.122Z,7.47
2018-12-25T11:16:34.937Z,6.67
2018-12-25T11:19:17.711Z,6.07
2018-12-25T11:22:07.478Z,6.97
2018-12-25T11:24:57.219Z,6.10
2018-12-25T11:27:47.259Z,6.93
2018-12-25T11:30:36.994Z,6.10
2018-12-25T11:33:26.730Z,7.33
2018-12-25T11:36:16.553Z,7.30
2018-12-25T11:39:46.703Z,7.30
2018-12-25T11:42:36.540Z,6.93
2018-12-25T11:45:26.597Z,6.50
2018-12-25T11:51:25.163Z,7.43
2018-12-25T11:54:14.885Z,8.00
2018-12-25T11:57:04.769Z,6.97
2018-12-25T11:59:54.493Z,7.67
2018-12-25T12:02:44.310Z,6.97
2018-12-25T12:05:34.128Z,7.53
2018-12-25T12:08:23.858Z,6.73
2018-12-25T12:11:13.863Z,7.33
2018-12-25T12:14:03.671Z,6.97
2018-12-25T12:17:12.197Z,6.33
2018-12-25T12:19:55.107Z,6.73
2018-12-25T12:22:44.852Z,7.60
2018-12-25T12:25:34.863Z,7.53
2018-12-25T12:28:24.835Z,7.10
2018-12-25T12:31:14.645Z,7.03
2018-12-25T12:34:04.456Z,7.03
2018-12-25T12:36:54.257Z,7.13
2018-12-25T12:39:43.990Z,6.27
2018-12-25T12:42:34.090Z,6.80
2018-12-25T12:45:24.485Z,7.47
2018-12-25T12:48:14.574Z,7.00
2018-12-25T12:54:13.283Z,7.00
2018-12-25T12:57:03.050Z,8.27
2018-12-25T12:59:52.771Z,7.83
2018-12-25T13:02:42.510Z,9.73
2018-12-25T13:05:32.227Z,8.00
2018-12-25T13:08:22.283Z,7.30
2018-12-25T13:11:12.003Z,7.00
2018-12-25T13:14:01.740Z,8.23
2018-12-25T13:16:51.651Z,8.13
2018-12-25T13:19:34.418Z,8.00
2018-12-25T13:22:24.440Z,7.30
2018-12-25T13:25:14.406Z,6.60
2018-12-25T13:28:04.139Z,6.50
2018-12-25T13:30:53.864Z,7.50
2018-12-25T13:33:43.682Z,6.90
2018-12-25T13:36:33.407Z,6.67
2018-12-25T13:39:23.410Z,7.03
2018-12-25T13:42:13.216Z,7.23
2018-12-25T13:45:02.967Z,7.50
2018-12-25T13:47:53.111Z,7.23
2018-12-25T13:50:42.996Z,9.07
2018-12-25T13:53:32.736Z,9.23
2018-12-25T13:56:22.804Z,8.57
2018-12-25T13:59:12.542Z,9.83
2018-12-25T14:02:02.272Z,8.43
2018-12-25T14:07:47.529Z,6.97
2018-12-25T14:10:37.337Z,6.50
2018-12-25T14:13:27.427Z,6.77
2018-12-25T14:16:17.162Z,6.67
2018-12-25T14:18:59.666Z,6.70
2018-12-25T14:21:49.392Z,6.20
2018-12-25T14:24:39.215Z,6.13
2018-12-25T14:27:28.936Z,7.47
2018-12-25T14:30:19.030Z,7.20
2018-12-25T14:33:10.964Z,6.87
2018-12-25T14:36:00.791Z,6.27
2018-12-25T14:38:50.518Z,8.23
2018-12-25T14:41:40.254Z,6.13
2018-12-25T14:44:30.331Z,6.70
2018-12-25T14:47:20.430Z,6.60
2018-12-25T14:50:10.268Z,7.13
2018-12-25T14:52:59.992Z,7.67
2018-12-25T14:55:49.805Z,8.67
2018-12-25T14:58:39.529Z,7.17
2018-12-25T15:01:29.273Z,7.80
2018-12-25T15:04:19.000Z,8.10
2018-12-25T15:07:09.156Z,7.90
2018-12-25T15:09:58.871Z,7.23
2018-12-25T15:12:48.953Z,8.63
2018-12-25T15:15:38.715Z,7.30
2018-12-25T15:18:20.815Z,7.63
2018-12-25T15:21:10.552Z,7.37
2018-12-25T15:24:00.301Z,7.03
2018-12-25T15:26:50.045Z,7.13
2018-12-25T15:29:39.767Z,7.93
2018-12-25T15:32:29.523Z,8.00
2018-12-25T15:35:19.867Z,8.57
2018-12-25T15:38:09.591Z,7.20
2018-12-25T15:40:59.697Z,7.60
2018-12-25T15:43:49.436Z,7.87
2018-12-25T15:46:39.510Z,7.47
2018-12-25T15:49:29.593Z,9.27
2018-12-25T15:52:19.981Z,9.33
2018-12-25T15:55:10.203Z,9.83
2018-12-25T15:58:00.310Z,10.77
2018-12-25T16:00:50.447Z,11.23
2018-12-25T16:03:40.209Z,10.93
2018-12-25T16:06:30.056Z,10.10
2018-12-25T16:09:19.793Z,10.63
2018-12-25T16:12:09.559Z,10.23
2018-12-25T16:14:59.323Z,11.03
2018-12-25T16:17:49.707Z,10.10
2018-12-25T16:20:39.530Z,9.27
2018-12-25T16:23:29.599Z,9.67
2018-12-25T16:26:38.127Z,9.80
2018-12-25T16:29:29.509Z,8.70
2018-12-25T16:32:19.763Z,9.60
2018-12-25T16:35:09.589Z,10.63
2018-12-25T16:37:59.332Z,8.93
2018-12-25T16:40:49.071Z,12.47
2018-12-25T16:43:39.081Z,12.20
2018-12-25T16:46:28.807Z,9.57
2018-12-25T16:49:18.639Z,10.17
2018-12-25T16:55:03.774Z,10.50
2018-12-25T16:57:53.524Z,12.67
2018-12-25T17:00:43.339Z,10.93
2018-12-25T17:03:33.084Z,15.37
2018-12-25T17:06:23.144Z,16.70
2018-12-25T17:09:12.902Z,17.13
2018-12-25T17:12:02.623Z,16.63
2018-12-25T17:14:52.375Z,16.23
2018-12-25T17:18:01.395Z,15.13
2018-12-25T17:20:43.519Z,15.27
2018-12-25T17:23:33.290Z,15.87
2018-12-25T17:26:23.537Z,18.00
2018-12-25T17:29:13.280Z,15.87
2018-12-25T17:32:03.026Z,16.43
2018-12-25T17:35:11.880Z,18.27
2018-12-25T17:38:01.958Z,16.87
2018-12-25T17:40:52.083Z,16.97
2018-12-25T17:43:42.189Z,21.80
2018-12-25T17:46:31.922Z,22.10
2018-12-25T17:49:21.671Z,17.90
2018-12-25T17:52:11.765Z,17.80
2018-12-25T17:55:01.863Z,16.93
2018-12-25T17:57:51.609Z,14.57
2018-12-25T18:00:41.363Z,14.50
2018-12-25T18:03:31.416Z,14.50
2018-12-25T18:06:21.446Z,14.53
2018-12-25T18:09:11.183Z,14.40
2018-12-25T18:12:00.927Z,14.40
2018-12-25T18:14:50.717Z,13.87
2018-12-25T18:17:40.452Z,12.63
2018-12-25T18:20:23.303Z,14.27
2018-12-25T18:23:13.568Z,15.80
2018-12-25T18:26:03.631Z,17.00
2018-12-25T18:28:53.718Z,16.00
2018-12-25T18:31:43.720Z,13.43
2018-12-25T18:34:33.472Z,12.77
2018-12-25T18:37:23.206Z,13.47
2018-12-25T18:40:12.970Z,12.67
2018-12-25T18:43:02.705Z,13.37
2018-12-25T18:45:52.469Z,12.90
2018-12-25T18:48:42.550Z,12.67
2018-12-25T18:51:32.299Z,13.10
2018-12-25T18:54:27.759Z,12.53
2018-12-25T18:57:13.922Z,12.80
2018-12-25T19:00:03.667Z,15.07
2018-12-25T19:02:53.435Z,18.40
2018-12-25T19:05:43.481Z,17.40
2018-12-25T19:08:33.216Z,21.97
2018-12-25T19:11:23.143Z,18.93
2018-12-25T19:14:13.239Z,19.27
2018-12-25T19:17:03.459Z,17.77
2018-12-25T19:19:45.914Z,18.30
2018-12-25T19:22:54.942Z,17.23
2018-12-25T19:25:44.684Z,18.80
2018-12-25T19:28:34.426Z,19.30
2018-12-25T19:31:24.485Z,22.57
2018-12-25T19:34:14.232Z,23.47
2018-12-25T19:37:04.307Z,22.20
2018-12-25T19:39:54.114Z,20.03
2018-12-25T19:42:43.942Z,18.23
2018-12-25T19:45:34.306Z,18.23
2018-12-25T19:48:24.047Z,17.83
2018-12-25T19:51:14.515Z,16.53
2018-12-25T19:54:23.191Z,16.63
2018-12-25T19:57:12.938Z,16.33
2018-12-25T20:00:03.090Z,15.67
2018-12-25T20:03:30.957Z,16.90
2018-12-25T20:06:55.614Z,12.97
2018-12-25T20:10:23.454Z,12.83
2018-12-25T20:13:51.560Z,12.67
2018-12-25T20:17:19.668Z,14.20
2018-12-25T20:20:20.915Z,14.37
2018-12-25T20:23:48.765Z,12.20
2018-12-25T20:27:16.615Z,12.03
2018-12-25T20:30:44.479Z,11.77
2018-12-25T20:34:12.325Z,11.53
2018-12-25T20:37:40.182Z,10.97
2018-12-25T20:41:08.017Z,11.90
2018-12-25T20:44:35.872Z,10.60
2018-12-25T20:48:03.719Z,9.93
2018-12-25T20:51:31.555Z,9.33
2018-12-25T20:55:01.475Z,10.43
2018-12-25T20:58:29.011Z,10.50
2018-12-25T21:01:57.085Z,11.40
2018-12-25T21:05:24.937Z,10.97
2018-12-25T21:08:52.784Z,10.33
2018-12-25T21:12:20.620Z,10.37
2018-12-25T21:15:48.460Z,13.43
2018-12-25T21:18:50.336Z,16.73
2018-12-25T21:22:26.219Z,15.20
2018-12-25T21:25:54.096Z,10.60
2018-12-25T21:28:43.924Z,8.90
2018-12-25T21:31:33.824Z,7.57
2018-12-25T21:34:23.729Z,8.53
2018-12-25T21:40:44.001Z,7.00
2018-12-25T21:43:53.237Z,8.40
2018-12-25T21:46:43.349Z,11.67
2018-12-25T21:49:33.360Z,12.93
2018-12-25T21:52:23.719Z,13.43
2018-12-25T21:55:18.531Z,17.20
2018-12-25T21:58:05.157Z,16.90
2018-12-25T22:00:55.155Z,16.80
2018-12-25T22:03:45.591Z,15.70
2018-12-25T22:06:35.417Z,17.70
2018-12-25T22:09:25.241Z,17.50
2018-12-25T22:15:23.724Z,17.70
2018-12-25T22:18:13.456Z,19.00
2018-12-25T22:23:58.849Z,16.67
2018-12-25T22:26:48.584Z,15.73
2018-12-25T22:29:38.313Z,14.27
2018-12-25T22:32:28.066Z,13.53
2018-12-25T22:35:18.168Z,13.83
2018-12-25T22:38:07.904Z,14.10
2018-12-25T22:40:57.672Z,13.63
2018-12-25T22:43:47.405Z,13.20
2018-12-25T22:46:37.231Z,13.20
2018-12-25T22:49:27.358Z,12.67
2018-12-25T22:52:17.107Z,13.30
2018-12-25T22:55:26.331Z,11.93
2018-12-25T22:58:16.356Z,13.57
2018-12-25T23:01:06.342Z,14.13
2018-12-25T23:03:56.638Z,13.13
2018-12-25T23:06:46.398Z,12.87
2018-12-25T23:09:36.132Z,12.57
2018-12-25T23:12:25.874Z,13.10
2018-12-25T23:15:15.629Z,12.83
2018-12-25T23:18:05.460Z,14.00
2018-12-25T23:20:55.192Z,13.50
2018-12-25T23:23:44.946Z,13.30
2018-12-25T23:29:43.608Z,13.17
2018-12-25T23:32:33.428Z,13.27
2018-12-25T23:35:23.155Z,11.67
2018-12-25T23:38:12.908Z,10.73
2018-12-25T23:41:02.636Z,10.27
2018-12-25T23:43:52.641Z,11.93
2018-12-25T23:46:42.458Z,11.20
2018-12-25T23:49:32.217Z,11.07
2018-12-25T23:52:21.951Z,10.57
2018-12-25T23:55:12.289Z,11.43
2018-12-25T23:58:02.300Z,12.30
